sensor_id;sensor_type;location;lat;lon;timestamp;P1;durP1;ratioP1;P2;durP2;ratioP2
1603;SDS011;795;49.296;11.348;2023-06-19T00:01:08;8.33;;;7.63;;
1603;SDS011;795;49.296;11.348;2023-06-19T00:03:35;7.63;;;6.93;;
1603;SDS011;795;49.296;11.348;2023-06-19T00:06:02;7.80;;;7.00;;
1603;SDS011;795;49.296;11.348;2023-06-19T00:08:29;6.90;;;6.30;;
1603;SDS011;795;49.296;11.348;2023-06-19T00:10:56;7.53;;;6.90;;
1603;SDS011;795;49.296;11.348;2023-06-19T00:13:24;7.40;;;6.70;;
1603;SDS011;795;49.296;11.348;2023-06-19T00:15:51;7.57;;;6.90;;
1603;SDS011;795;49.296;11.348;2023-06-19T00:18:18;7.43;;;6.73;;
1603;SDS011;795;49.296;11.348;2023-06-19T00:20:46;7.67;;;6.97;;
1603;SDS011;795;49.296;11.348;2023-06-19T00:23:13;6.53;;;5.93;;
1603;SDS011;795;49.296;11.348;2023-06-19T00:25:43;6.67;;;6.17;;
1603;SDS011;795;49.296;11.348;2023-06-19T00:28:10;7.40;;;6.70;;
1603;SDS011;795;49.296;11.348;2023-06-19T00:30:41;6.27;;;5.77;;
1603;SDS011;795;49.296;11.348;2023-06-19T00:33:08;6.90;;;6.23;;
1603;SDS011;795;49.296;11.348;2023-06-19T00:35:35;6.37;;;5.83;;
1603;SDS011;795;49.296;11.348;2023-06-19T00:38:03;8.20;;;6.63;;
1603;SDS011;795;49.296;11.348;2023-06-19T00:40:32;7.73;;;6.93;;
1603;SDS011;795;49.296;11.348;2023-06-19T00:43:01;7.00;;;6.40;;
1603;SDS011;795;49.296;11.348;2023-06-19T00:45:29;6.77;;;6.20;;
1603;SDS011;795;49.296;11.348;2023-06-19T00:47:56;7.70;;;7.00;;
1603;SDS011;795;49.296;11.348;2023-06-19T00:50:27;6.80;;;6.20;;
1603;SDS011;795;49.296;11.348;2023-06-19T00:52:56;6.87;;;6.27;;
1603;SDS011;795;49.296;11.348;2023-06-19T00:55:28;7.07;;;6.40;;
1603;SDS011;795;49.296;11.348;2023-06-19T00:57:58;7.20;;;6.60;;
1603;SDS011;795;49.296;11.348;2023-06-19T01:00:26;7.87;;;7.07;;
1603;SDS011;795;49.296;11.348;2023-06-19T01:02:53;7.77;;;6.93;;
1603;SDS011;795;49.296;11.348;2023-06-19T01:05:21;7.40;;;6.70;;
1603;SDS011;795;49.296;11.348;2023-06-19T01:07:53;8.30;;;7.53;;
1603;SDS011;795;49.296;11.348;2023-06-19T01:10:43;6.53;;;6.03;;
1603;SDS011;795;49.296;11.348;2023-06-19T01:16:03;7.23;;;6.60;;
1603;SDS011;795;49.296;11.348;2023-06-19T01:18:33;6.93;;;6.23;;
1603;SDS011;795;49.296;11.348;2023-06-19T01:21:14;7.23;;;6.53;;
1603;SDS011;795;49.296;11.348;2023-06-19T01:23:45;7.47;;;6.87;;
1603;SDS011;795;49.296;11.348;2023-06-19T01:26:13;6.77;;;6.20;;
1603;SDS011;795;49.296;11.348;2023-06-19T01:28:46;7.03;;;6.43;;
1603;SDS011;795;49.296;11.348;2023-06-19T01:31:33;6.93;;;6.33;;
1603;SDS011;795;49.296;11.348;2023-06-19T01:34:16;7.07;;;6.20;;
1603;SDS011;795;49.296;11.348;2023-06-19T01:36:47;7.43;;;6.80;;
1603;SDS011;795;49.296;11.348;2023-06-19T01:39:16;6.93;;;6.33;;
1603;SDS011;795;49.296;11.348;2023-06-19T01:41:46;10.80;;;7.10;;
1603;SDS011;795;49.296;11.348;2023-06-19T01:44:15;7.90;;;7.20;;
1603;SDS011;795;49.296;11.348;2023-06-19T01:46:42;6.93;;;6.33;;
1603;SDS011;795;49.296;11.348;2023-06-19T01:49:16;8.40;;;6.70;;
1603;SDS011;795;49.296;11.348;2023-06-19T01:51:44;7.27;;;6.67;;
1603;SDS011;795;49.296;11.348;2023-06-19T01:54:11;7.23;;;6.60;;
1603;SDS011;795;49.296;11.348;2023-06-19T01:56:38;7.77;;;7.07;;
1603;SDS011;795;49.296;11.348;2023-06-19T01:59:05;7.63;;;5.97;;
1603;SDS011;795;49.296;11.348;2023-06-19T02:01:32;7.67;;;6.97;;
1603;SDS011;795;49.296;11.348;2023-06-19T02:03:59;8.07;;;7.37;;
1603;SDS011;795;49.296;11.348;2023-06-19T02:06:26;7.03;;;6.43;;
1603;SDS011;795;49.296;11.348;2023-06-19T02:08:56;7.30;;;6.70;;
1603;SDS011;795;49.296;11.348;2023-06-19T02:11:23;7.47;;;6.80;;
1603;SDS011;795;49.296;11.348;2023-06-19T02:13:50;7.20;;;6.53;;
1603;SDS011;795;49.296;11.348;2023-06-19T02:16:17;8.00;;;7.20;;
1603;SDS011;795;49.296;11.348;2023-06-19T02:18:44;11.00;;;6.60;;
1603;SDS011;795;49.296;11.348;2023-06-19T02:21:11;7.70;;;6.90;;
1603;SDS011;795;49.296;11.348;2023-06-19T02:23:38;7.43;;;6.83;;
1603;SDS011;795;49.296;11.348;2023-06-19T02:26:05;7.20;;;6.50;;
1603;SDS011;795;49.296;11.348;2023-06-19T02:28:32;7.87;;;7.17;;
1603;SDS011;795;49.296;11.348;2023-06-19T02:30:59;8.23;;;7.37;;
1603;SDS011;795;49.296;11.348;2023-06-19T02:33:26;8.20;;;7.50;;
1603;SDS011;795;49.296;11.348;2023-06-19T02:35:53;9.60;;;7.03;;
1603;SDS011;795;49.296;11.348;2023-06-19T02:38:25;7.83;;;7.00;;
1603;SDS011;795;49.296;11.348;2023-06-19T02:40:52;8.53;;;7.70;;
1603;SDS011;795;49.296;11.348;2023-06-19T02:43:19;10.23;;;7.37;;
1603;SDS011;795;49.296;11.348;2023-06-19T02:45:46;7.93;;;7.23;;
1603;SDS011;795;49.296;11.348;2023-06-19T02:48:13;7.13;;;6.53;;
1603;SDS011;795;49.296;11.348;2023-06-19T02:50:41;7.80;;;6.20;;
1603;SDS011;795;49.296;11.348;2023-06-19T02:53:08;7.30;;;6.50;;
1603;SDS011;795;49.296;11.348;2023-06-19T02:55:35;7.03;;;6.30;;
1603;SDS011;795;49.296;11.348;2023-06-19T02:58:02;7.43;;;6.73;;
1603;SDS011;795;49.296;11.348;2023-06-19T03:00:29;7.57;;;6.90;;
1603;SDS011;795;49.296;11.348;2023-06-19T03:02:56;9.80;;;7.40;;
1603;SDS011;795;49.296;11.348;2023-06-19T03:05:23;7.70;;;6.90;;
1603;SDS011;795;49.296;11.348;2023-06-19T03:07:52;8.47;;;7.70;;
1603;SDS011;795;49.296;11.348;2023-06-19T03:10:19;8.70;;;7.83;;
1603;SDS011;795;49.296;11.348;2023-06-19T03:12:46;8.23;;;7.53;;
1603;SDS011;795;49.296;11.348;2023-06-19T03:15:13;7.00;;;6.40;;
1603;SDS011;795;49.296;11.348;2023-06-19T03:17:40;7.83;;;7.13;;
1603;SDS011;795;49.296;11.348;2023-06-19T03:20:07;9.00;;;6.47;;
1603;SDS011;795;49.296;11.348;2023-06-19T03:22:41;7.77;;;6.10;;
1603;SDS011;795;49.296;11.348;2023-06-19T03:25:08;8.70;;;7.90;;
1603;SDS011;795;49.296;11.348;2023-06-19T03:27:35;6.60;;;6.00;;
1603;SDS011;795;49.296;11.348;2023-06-19T03:30:03;7.57;;;6.33;;
1603;SDS011;795;49.296;11.348;2023-06-19T03:32:35;7.00;;;6.40;;
1603;SDS011;795;49.296;11.348;2023-06-19T03:35:02;7.37;;;6.60;;
1603;SDS011;795;49.296;11.348;2023-06-19T03:37:31;8.77;;;7.50;;
1603;SDS011;795;49.296;11.348;2023-06-19T03:40:01;7.97;;;7.27;;
1603;SDS011;795;49.296;11.348;2023-06-19T03:42:32;7.20;;;6.50;;
1603;SDS011;795;49.296;11.348;2023-06-19T03:45:00;10.00;;;6.70;;
1603;SDS011;795;49.296;11.348;2023-06-19T03:47:27;8.07;;;7.33;;
1603;SDS011;795;49.296;11.348;2023-06-19T03:49:54;10.00;;;7.63;;
1603;SDS011;795;49.296;11.348;2023-06-19T03:52:21;7.63;;;7.00;;
1603;SDS011;795;49.296;11.348;2023-06-19T03:54:48;8.27;;;7.53;;
1603;SDS011;795;49.296;11.348;2023-06-19T03:57:15;8.00;;;7.30;;
1603;SDS011;795;49.296;11.348;2023-06-19T03:59:42;7.30;;;6.60;;
1603;SDS011;795;49.296;11.348;2023-06-19T04:02:09;9.13;;;7.70;;
1603;SDS011;795;49.296;11.348;2023-06-19T04:04:36;8.00;;;7.30;;
1603;SDS011;795;49.296;11.348;2023-06-19T04:07:03;9.60;;;7.53;;
1603;SDS011;795;49.296;11.348;2023-06-19T04:09:31;8.83;;;7.87;;
1603;SDS011;795;49.296;11.348;2023-06-19T04:11:58;9.67;;;8.03;;
1603;SDS011;795;49.296;11.348;2023-06-19T04:14:25;8.67;;;7.70;;
1603;SDS011;795;49.296;11.348;2023-06-19T04:16:52;12.23;;;9.10;;
1603;SDS011;795;49.296;11.348;2023-06-19T04:19:18;9.07;;;8.17;;
1603;SDS011;795;49.296;11.348;2023-06-19T04:21:45;8.20;;;7.40;;
1603;SDS011;795;49.296;11.348;2023-06-19T04:24:13;8.17;;;7.57;;
1603;SDS011;795;49.296;11.348;2023-06-19T04:26:40;9.53;;;8.17;;
1603;SDS011;795;49.296;11.348;2023-06-19T04:29:08;7.67;;;7.00;;
1603;SDS011;795;49.296;11.348;2023-06-19T04:31:46;8.13;;;7.43;;
1603;SDS011;795;49.296;11.348;2023-06-19T04:34:16;8.83;;;7.40;;
1603;SDS011;795;49.296;11.348;2023-06-19T04:36:47;8.27;;;7.47;;
1603;SDS011;795;49.296;11.348;2023-06-19T04:39:14;8.60;;;7.50;;
1603;SDS011;795;49.296;11.348;2023-06-19T04:41:45;7.77;;;7.13;;
1603;SDS011;795;49.296;11.348;2023-06-19T04:44:12;9.10;;;8.20;;
1603;SDS011;795;49.296;11.348;2023-06-19T04:46:39;8.93;;;8.13;;
1603;SDS011;795;49.296;11.348;2023-06-19T04:49:07;8.63;;;7.73;;
1603;SDS011;795;49.296;11.348;2023-06-19T04:51:35;8.47;;;7.57;;
1603;SDS011;795;49.296;11.348;2023-06-19T04:54:02;7.57;;;6.50;;
1603;SDS011;795;49.296;11.348;2023-06-19T04:56:29;8.37;;;7.67;;
1603;SDS011;795;49.296;11.348;2023-06-19T04:58:56;8.00;;;7.30;;
1603;SDS011;795;49.296;11.348;2023-06-19T05:01:26;8.47;;;7.67;;
1603;SDS011;795;49.296;11.348;2023-06-19T05:03:55;9.03;;;8.23;;
1603;SDS011;795;49.296;11.348;2023-06-19T05:06:23;9.50;;;8.70;;
1603;SDS011;795;49.296;11.348;2023-06-19T05:08:50;10.03;;;8.20;;
1603;SDS011;795;49.296;11.348;2023-06-19T05:11:18;9.07;;;7.97;;
1603;SDS011;795;49.296;11.348;2023-06-19T05:13:45;8.30;;;7.60;;
1603;SDS011;795;49.296;11.348;2023-06-19T05:16:12;9.53;;;8.63;;
1603;SDS011;795;49.296;11.348;2023-06-19T05:18:42;9.70;;;7.30;;
1603;SDS011;795;49.296;11.348;2023-06-19T05:21:10;10.03;;;8.90;;
1603;SDS011;795;49.296;11.348;2023-06-19T05:23:37;11.63;;;8.83;;
1603;SDS011;795;49.296;11.348;2023-06-19T05:26:07;9.30;;;8.20;;
1603;SDS011;795;49.296;11.348;2023-06-19T05:28:34;9.20;;;7.30;;
1603;SDS011;795;49.296;11.348;2023-06-19T05:31:01;9.80;;;7.90;;
1603;SDS011;795;49.296;11.348;2023-06-19T05:33:27;8.73;;;7.83;;
1603;SDS011;795;49.296;11.348;2023-06-19T05:35:54;8.23;;;7.43;;
1603;SDS011;795;49.296;11.348;2023-06-19T05:38:22;10.20;;;8.23;;
1603;SDS011;795;49.296;11.348;2023-06-19T05:40:50;8.90;;;8.10;;
1603;SDS011;795;49.296;11.348;2023-06-19T05:43:17;8.83;;;8.03;;
1603;SDS011;795;49.296;11.348;2023-06-19T05:45:45;7.07;;;6.40;;
1603;SDS011;795;49.296;11.348;2023-06-19T05:48:12;8.40;;;7.60;;
1603;SDS011;795;49.296;11.348;2023-06-19T05:50:39;8.57;;;7.77;;
1603;SDS011;795;49.296;11.348;2023-06-19T05:53:06;8.77;;;7.80;;
1603;SDS011;795;49.296;11.348;2023-06-19T05:55:32;9.13;;;8.20;;
1603;SDS011;795;49.296;11.348;2023-06-19T05:58:00;8.80;;;8.10;;
1603;SDS011;795;49.296;11.348;2023-06-19T06:00:29;9.13;;;7.73;;
1603;SDS011;795;49.296;11.348;2023-06-19T06:02:58;8.00;;;7.30;;
1603;SDS011;795;49.296;11.348;2023-06-19T06:05:28;8.27;;;7.57;;
1603;SDS011;795;49.296;11.348;2023-06-19T06:07:55;8.40;;;7.70;;
1603;SDS011;795;49.296;11.348;2023-06-19T06:10:22;16.53;;;8.77;;
1603;SDS011;795;49.296;11.348;2023-06-19T06:12:51;14.77;;;8.30;;
1603;SDS011;795;49.296;11.348;2023-06-19T06:15:18;9.80;;;7.93;;
1603;SDS011;795;49.296;11.348;2023-06-19T06:17:46;9.10;;;8.40;;
1603;SDS011;795;49.296;11.348;2023-06-19T06:20:13;9.23;;;8.03;;
1603;SDS011;795;49.296;11.348;2023-06-19T06:22:41;9.70;;;7.90;;
1603;SDS011;795;49.296;11.348;2023-06-19T06:25:11;9.83;;;8.93;;
1603;SDS011;795;49.296;11.348;2023-06-19T06:27:39;9.23;;;8.43;;
1603;SDS011;795;49.296;11.348;2023-06-19T06:30:08;11.70;;;8.37;;
1603;SDS011;795;49.296;11.348;2023-06-19T06:32:38;10.20;;;9.20;;
1603;SDS011;795;49.296;11.348;2023-06-19T06:35:05;8.33;;;7.60;;
1603;SDS011;795;49.296;11.348;2023-06-19T06:37:33;10.87;;;9.63;;
1603;SDS011;795;49.296;11.348;2023-06-19T06:40:00;9.20;;;8.40;;
1603;SDS011;795;49.296;11.348;2023-06-19T06:42:27;9.60;;;8.70;;
1603;SDS011;795;49.296;11.348;2023-06-19T06:44:54;10.20;;;9.20;;
1603;SDS011;795;49.296;11.348;2023-06-19T06:47:21;9.27;;;8.50;;
1603;SDS011;795;49.296;11.348;2023-06-19T06:49:48;9.50;;;8.70;;
1603;SDS011;795;49.296;11.348;2023-06-19T06:52:15;8.13;;;7.43;;
1603;SDS011;795;49.296;11.348;2023-06-19T06:54:42;8.33;;;7.53;;
1603;SDS011;795;49.296;11.348;2023-06-19T06:57:10;10.87;;;9.67;;
1603;SDS011;795;49.296;11.348;2023-06-19T06:59:37;10.47;;;9.47;;
1603;SDS011;795;49.296;11.348;2023-06-19T07:02:04;9.83;;;8.60;;
1603;SDS011;795;49.296;11.348;2023-06-19T07:04:30;9.70;;;8.80;;
1603;SDS011;795;49.296;11.348;2023-06-19T07:06:58;11.37;;;8.80;;
1603;SDS011;795;49.296;11.348;2023-06-19T07:09:25;11.23;;;9.50;;
1603;SDS011;795;49.296;11.348;2023-06-19T07:11:53;14.73;;;8.90;;
1603;SDS011;795;49.296;11.348;2023-06-19T07:14:20;10.83;;;9.83;;
1603;SDS011;795;49.296;11.348;2023-06-19T07:16:48;10.90;;;10.00;;
1603;SDS011;795;49.296;11.348;2023-06-19T07:19:16;12.07;;;10.77;;
1603;SDS011;795;49.296;11.348;2023-06-19T07:21:43;10.33;;;9.33;;
1603;SDS011;795;49.296;11.348;2023-06-19T07:24:10;10.60;;;9.60;;
1603;SDS011;795;49.296;11.348;2023-06-19T07:26:37;11.63;;;10.47;;
1603;SDS011;795;49.296;11.348;2023-06-19T07:29:04;11.30;;;9.67;;
1603;SDS011;795;49.296;11.348;2023-06-19T07:31:31;10.50;;;9.60;;
1603;SDS011;795;49.296;11.348;2023-06-19T07:33:58;11.30;;;10.20;;
1603;SDS011;795;49.296;11.348;2023-06-19T07:36:25;10.90;;;9.90;;
1603;SDS011;795;49.296;11.348;2023-06-19T07:38:54;10.93;;;9.93;;
1603;SDS011;795;49.296;11.348;2023-06-19T07:41:22;10.80;;;9.70;;
1603;SDS011;795;49.296;11.348;2023-06-19T07:43:49;10.43;;;9.43;;
1603;SDS011;795;49.296;11.348;2023-06-19T07:46:15;11.57;;;10.40;;
1603;SDS011;795;49.296;11.348;2023-06-19T07:48:43;13.23;;;8.93;;
1603;SDS011;795;49.296;11.348;2023-06-19T07:51:10;12.30;;;11.10;;
1603;SDS011;795;49.296;11.348;2023-06-19T07:53:37;11.00;;;10.10;;
1603;SDS011;795;49.296;11.348;2023-06-19T07:56:05;12.33;;;11.03;;
1603;SDS011;795;49.296;11.348;2023-06-19T07:58:32;11.50;;;10.40;;
1603;SDS011;795;49.296;11.348;2023-06-19T08:03:33;12.30;;;10.47;;
1603;SDS011;795;49.296;11.348;2023-06-19T08:06:00;13.00;;;11.90;;
1603;SDS011;795;49.296;11.348;2023-06-19T08:08:27;13.10;;;11.20;;
1603;SDS011;795;49.296;11.348;2023-06-19T08:10:54;12.03;;;11.03;;
1603;SDS011;795;49.296;11.348;2023-06-19T08:13:21;17.33;;;12.70;;
1603;SDS011;795;49.296;11.348;2023-06-19T08:15:48;13.13;;;11.93;;
1603;SDS011;795;49.296;11.348;2023-06-19T08:18:15;14.10;;;12.70;;
1603;SDS011;795;49.296;11.348;2023-06-19T08:20:43;12.83;;;11.73;;
1603;SDS011;795;49.296;11.348;2023-06-19T08:23:10;12.23;;;11.13;;
1603;SDS011;795;49.296;11.348;2023-06-19T08:25:37;12.00;;;11.00;;
1603;SDS011;795;49.296;11.348;2023-06-19T08:28:04;11.23;;;10.13;;
1603;SDS011;795;49.296;11.348;2023-06-19T08:30:31;11.00;;;10.10;;
1603;SDS011;795;49.296;11.348;2023-06-19T08:32:58;9.77;;;9.00;;
1603;SDS011;795;49.296;11.348;2023-06-19T08:35:25;10.47;;;9.47;;
1603;SDS011;795;49.296;11.348;2023-06-19T08:37:52;10.23;;;9.43;;
1603;SDS011;795;49.296;11.348;2023-06-19T08:40:20;10.00;;;9.20;;
1603;SDS011;795;49.296;11.348;2023-06-19T08:42:48;8.80;;;8.00;;
1603;SDS011;795;49.296;11.348;2023-06-19T08:45:15;8.20;;;7.57;;
1603;SDS011;795;49.296;11.348;2023-06-19T08:47:44;9.23;;;8.43;;
1603;SDS011;795;49.296;11.348;2023-06-19T08:50:13;10.20;;;9.20;;
1603;SDS011;795;49.296;11.348;2023-06-19T08:52:41;11.70;;;10.60;;
1603;SDS011;795;49.296;11.348;2023-06-19T08:55:08;11.53;;;10.63;;
1603;SDS011;795;49.296;11.348;2023-06-19T08:57:39;11.53;;;10.43;;
1603;SDS011;795;49.296;11.348;2023-06-19T09:00:07;11.17;;;10.20;;
1603;SDS011;795;49.296;11.348;2023-06-19T09:02:45;9.93;;;9.23;;
1603;SDS011;795;49.296;11.348;2023-06-19T09:05:29;10.63;;;9.73;;
1603;SDS011;795;49.296;11.348;2023-06-19T09:07:58;9.43;;;8.63;;
1603;SDS011;795;49.296;11.348;2023-06-19T09:10:29;11.03;;;9.90;;
1603;SDS011;795;49.296;11.348;2023-06-19T09:12:57;11.93;;;7.93;;
1603;SDS011;795;49.296;11.348;2023-06-19T09:15:30;12.03;;;10.83;;
1603;SDS011;795;49.296;11.348;2023-06-19T09:18:02;9.73;;;8.63;;
1603;SDS011;795;49.296;11.348;2023-06-19T09:20:37;8.60;;;7.93;;
1603;SDS011;795;49.296;11.348;2023-06-19T09:23:10;8.60;;;7.90;;
1603;SDS011;795;49.296;11.348;2023-06-19T09:25:49;8.37;;;7.67;;
1603;SDS011;795;49.296;11.348;2023-06-19T09:28:24;8.10;;;7.50;;
1603;SDS011;795;49.296;11.348;2023-06-19T09:30:55;7.90;;;7.20;;
1603;SDS011;795;49.296;11.348;2023-06-19T09:33:29;8.93;;;8.03;;
1603;SDS011;795;49.296;11.348;2023-06-19T09:36:01;8.23;;;7.33;;
1603;SDS011;795;49.296;11.348;2023-06-19T09:38:32;8.83;;;7.93;;
1603;SDS011;795;49.296;11.348;2023-06-19T09:41:07;6.70;;;6.20;;
1603;SDS011;795;49.296;11.348;2023-06-19T09:46:13;6.63;;;6.13;;
1603;SDS011;795;49.296;11.348;2023-06-19T09:48:45;7.53;;;6.80;;
1603;SDS011;795;49.296;11.348;2023-06-19T09:51:26;7.50;;;6.80;;
1603;SDS011;795;49.296;11.348;2023-06-19T09:54:07;6.13;;;5.73;;
1603;SDS011;795;49.296;11.348;2023-06-19T09:56:36;7.33;;;6.70;;
1603;SDS011;795;49.296;11.348;2023-06-19T09:59:05;8.13;;;7.53;;
1603;SDS011;795;49.296;11.348;2023-06-19T10:01:35;8.17;;;7.57;;
1603;SDS011;795;49.296;11.348;2023-06-19T10:04:04;7.60;;;7.00;;
1603;SDS011;795;49.296;11.348;2023-06-19T10:06:47;7.60;;;7.00;;
1603;SDS011;795;49.296;11.348;2023-06-19T10:09:15;9.00;;;8.20;;
1603;SDS011;795;49.296;11.348;2023-06-19T10:11:53;8.10;;;7.40;;
1603;SDS011;795;49.296;11.348;2023-06-19T10:14:20;7.83;;;7.23;;
1603;SDS011;795;49.296;11.348;2023-06-19T10:16:49;7.50;;;7.00;;
1603;SDS011;795;49.296;11.348;2023-06-19T10:19:17;8.20;;;7.60;;
1603;SDS011;795;49.296;11.348;2023-06-19T10:21:48;7.63;;;6.67;;
1603;SDS011;795;49.296;11.348;2023-06-19T10:24:19;7.63;;;7.03;;
1603;SDS011;795;49.296;11.348;2023-06-19T10:27:00;7.80;;;7.10;;
1603;SDS011;795;49.296;11.348;2023-06-19T10:29:38;8.20;;;7.23;;
1603;SDS011;795;49.296;11.348;2023-06-19T10:32:11;7.53;;;6.93;;
1603;SDS011;795;49.296;11.348;2023-06-19T10:34:38;7.27;;;6.57;;
1603;SDS011;795;49.296;11.348;2023-06-19T10:37:05;7.73;;;7.20;;
1603;SDS011;795;49.296;11.348;2023-06-19T10:39:32;7.03;;;6.43;;
1603;SDS011;795;49.296;11.348;2023-06-19T10:42:00;7.73;;;6.93;;
1603;SDS011;795;49.296;11.348;2023-06-19T10:44:36;13.73;;;11.13;;
1603;SDS011;795;49.296;11.348;2023-06-19T10:47:06;9.87;;;8.60;;
1603;SDS011;795;49.296;11.348;2023-06-19T10:49:37;7.93;;;7.13;;
1603;SDS011;795;49.296;11.348;2023-06-19T10:52:06;9.40;;;8.70;;
1603;SDS011;795;49.296;11.348;2023-06-19T10:54:37;7.70;;;7.00;;
1603;SDS011;795;49.296;11.348;2023-06-19T10:57:11;7.20;;;6.60;;
1603;SDS011;795;49.296;11.348;2023-06-19T10:59:42;7.00;;;6.40;;
1603;SDS011;795;49.296;11.348;2023-06-19T11:02:13;7.00;;;6.50;;
1603;SDS011;795;49.296;11.348;2023-06-19T11:04:47;8.27;;;7.57;;
1603;SDS011;795;49.296;11.348;2023-06-19T11:07:15;6.70;;;6.20;;
1603;SDS011;795;49.296;11.348;2023-06-19T11:09:43;7.20;;;6.60;;
1603;SDS011;795;49.296;11.348;2023-06-19T11:12:11;7.30;;;6.80;;
1603;SDS011;795;49.296;11.348;2023-06-19T11:14:48;9.87;;;7.47;;
1603;SDS011;795;49.296;11.348;2023-06-19T11:17:22;7.27;;;6.57;;
1603;SDS011;795;49.296;11.348;2023-06-19T11:19:53;7.17;;;6.57;;
1603;SDS011;795;49.296;11.348;2023-06-19T11:22:38;7.60;;;7.10;;
1603;SDS011;795;49.296;11.348;2023-06-19T11:25:08;7.70;;;7.10;;
1603;SDS011;795;49.296;11.348;2023-06-19T11:27:37;7.83;;;7.10;;
1603;SDS011;795;49.296;11.348;2023-06-19T11:30:05;7.13;;;6.63;;
1603;SDS011;795;49.296;11.348;2023-06-19T11:32:34;10.77;;;7.77;;
1603;SDS011;795;49.296;11.348;2023-06-19T11:35:11;6.83;;;6.33;;
1603;SDS011;795;49.296;11.348;2023-06-19T11:37:42;7.67;;;7.07;;
1603;SDS011;795;49.296;11.348;2023-06-19T11:40:10;6.67;;;6.10;;
1603;SDS011;795;49.296;11.348;2023-06-19T11:42:45;7.00;;;6.50;;
1603;SDS011;795;49.296;11.348;2023-06-19T11:45:23;11.07;;;6.37;;
1603;SDS011;795;49.296;11.348;2023-06-19T11:47:50;6.80;;;6.30;;
1603;SDS011;795;49.296;11.348;2023-06-19T11:50:17;5.97;;;5.53;;
1603;SDS011;795;49.296;11.348;2023-06-19T11:52:46;6.63;;;6.03;;
1603;SDS011;795;49.296;11.348;2023-06-19T11:55:13;5.90;;;5.40;;
1603;SDS011;795;49.296;11.348;2023-06-19T11:57:42;5.70;;;5.30;;
1603;SDS011;795;49.296;11.348;2023-06-19T12:00:13;7.40;;;5.33;;
1603;SDS011;795;49.296;11.348;2023-06-19T12:02:43;4.83;;;4.53;;
1603;SDS011;795;49.296;11.348;2023-06-19T12:05:13;5.40;;;5.00;;
1603;SDS011;795;49.296;11.348;2023-06-19T12:07:40;4.93;;;4.53;;
1603;SDS011;795;49.296;11.348;2023-06-19T12:10:07;5.70;;;5.20;;
1603;SDS011;795;49.296;11.348;2023-06-19T12:12:37;5.50;;;5.10;;
1603;SDS011;795;49.296;11.348;2023-06-19T12:15:05;5.53;;;5.13;;
1603;SDS011;795;49.296;11.348;2023-06-19T12:17:33;5.60;;;5.30;;
1603;SDS011;795;49.296;11.348;2023-06-19T12:20:02;5.43;;;5.03;;
1603;SDS011;795;49.296;11.348;2023-06-19T12:22:32;5.10;;;4.80;;
1603;SDS011;795;49.296;11.348;2023-06-19T12:25:01;13.80;;;6.20;;
1603;SDS011;795;49.296;11.348;2023-06-19T12:27:28;6.00;;;5.40;;
1603;SDS011;795;49.296;11.348;2023-06-19T12:29:55;4.70;;;4.40;;
1603;SDS011;795;49.296;11.348;2023-06-19T12:32:26;6.17;;;5.20;;
1603;SDS011;795;49.296;11.348;2023-06-19T12:34:53;5.83;;;5.13;;
1603;SDS011;795;49.296;11.348;2023-06-19T12:37:21;6.37;;;5.53;;
1603;SDS011;795;49.296;11.348;2023-06-19T12:39:52;5.90;;;5.40;;
1603;SDS011;795;49.296;11.348;2023-06-19T12:42:19;7.50;;;5.37;;
1603;SDS011;795;49.296;11.348;2023-06-19T12:44:46;5.90;;;5.50;;
1603;SDS011;795;49.296;11.348;2023-06-19T12:47:13;5.33;;;5.03;;
1603;SDS011;795;49.296;11.348;2023-06-19T12:49:41;5.53;;;5.10;;
1603;SDS011;795;49.296;11.348;2023-06-19T12:52:08;5.17;;;4.70;;
1603;SDS011;795;49.296;11.348;2023-06-19T12:54:37;5.27;;;4.87;;
1603;SDS011;795;49.296;11.348;2023-06-19T12:57:10;5.43;;;5.03;;
1603;SDS011;795;49.296;11.348;2023-06-19T12:59:41;4.83;;;4.50;;
1603;SDS011;795;49.296;11.348;2023-06-19T13:02:08;4.87;;;4.50;;
1603;SDS011;795;49.296;11.348;2023-06-19T13:04:38;4.67;;;4.37;;
1603;SDS011;795;49.296;11.348;2023-06-19T13:07:05;5.03;;;4.70;;
1603;SDS011;795;49.296;11.348;2023-06-19T13:09:32;5.07;;;4.67;;
1603;SDS011;795;49.296;11.348;2023-06-19T13:12:02;4.83;;;4.53;;
1603;SDS011;795;49.296;11.348;2023-06-19T13:14:29;4.70;;;4.40;;
1603;SDS011;795;49.296;11.348;2023-06-19T13:16:58;4.70;;;4.40;;
1603;SDS011;795;49.296;11.348;2023-06-19T13:19:32;6.27;;;4.50;;
1603;SDS011;795;49.296;11.348;2023-06-19T13:22:01;7.67;;;4.40;;
1603;SDS011;795;49.296;11.348;2023-06-19T13:24:28;4.17;;;3.87;;
1603;SDS011;795;49.296;11.348;2023-06-19T13:26:55;4.77;;;4.47;;
1603;SDS011;795;49.296;11.348;2023-06-19T13:29:22;4.60;;;4.20;;
1603;SDS011;795;49.296;11.348;2023-06-19T13:31:50;5.07;;;4.57;;
1603;SDS011;795;49.296;11.348;2023-06-19T13:34:16;5.07;;;4.53;;
1603;SDS011;795;49.296;11.348;2023-06-19T13:36:45;4.80;;;4.50;;
1603;SDS011;795;49.296;11.348;2023-06-19T13:39:13;5.23;;;4.83;;
1603;SDS011;795;49.296;11.348;2023-06-19T13:41:41;6.40;;;5.20;;
1603;SDS011;795;49.296;11.348;2023-06-19T13:44:08;5.43;;;5.03;;
1603;SDS011;795;49.296;11.348;2023-06-19T13:46:35;4.80;;;4.50;;
1603;SDS011;795;49.296;11.348;2023-06-19T13:49:03;4.77;;;4.40;;
1603;SDS011;795;49.296;11.348;2023-06-19T13:51:30;8.37;;;4.40;;
1603;SDS011;795;49.296;11.348;2023-06-19T13:53:58;5.43;;;5.03;;
1603;SDS011;795;49.296;11.348;2023-06-19T13:56:25;4.90;;;4.50;;
1603;SDS011;795;49.296;11.348;2023-06-19T13:58:52;5.83;;;5.00;;
1603;SDS011;795;49.296;11.348;2023-06-19T14:01:19;4.87;;;4.47;;
1603;SDS011;795;49.296;11.348;2023-06-19T14:03:46;5.27;;;4.63;;
1603;SDS011;795;49.296;11.348;2023-06-19T14:06:13;4.83;;;4.43;;
1603;SDS011;795;49.296;11.348;2023-06-19T14:08:43;4.90;;;4.60;;
1603;SDS011;795;49.296;11.348;2023-06-19T14:11:11;5.33;;;4.93;;
1603;SDS011;795;49.296;11.348;2023-06-19T14:13:38;6.03;;;5.43;;
1603;SDS011;795;49.296;11.348;2023-06-19T14:16:05;5.80;;;4.97;;
1603;SDS011;795;49.296;11.348;2023-06-19T14:18:31;8.93;;;6.43;;
1603;SDS011;795;49.296;11.348;2023-06-19T14:20:59;6.00;;;5.50;;
1603;SDS011;795;49.296;11.348;2023-06-19T14:23:26;7.00;;;6.40;;
1603;SDS011;795;49.296;11.348;2023-06-19T14:25:53;8.43;;;6.63;;
1603;SDS011;795;49.296;11.348;2023-06-19T14:28:20;5.83;;;5.33;;
1603;SDS011;795;49.296;11.348;2023-06-19T14:30:48;5.37;;;4.87;;
1603;SDS011;795;49.296;11.348;2023-06-19T14:33:15;5.00;;;4.50;;
1603;SDS011;795;49.296;11.348;2023-06-19T14:35:42;4.60;;;4.20;;
1603;SDS011;795;49.296;11.348;2023-06-19T14:38:12;5.50;;;4.63;;
1603;SDS011;795;49.296;11.348;2023-06-19T14:40:43;2.87;;;2.60;;
1603;SDS011;795;49.296;11.348;2023-06-19T14:43:10;3.83;;;3.40;;
1603;SDS011;795;49.296;11.348;2023-06-19T14:45:37;3.20;;;2.90;;
1603;SDS011;795;49.296;11.348;2023-06-19T14:48:06;4.90;;;3.53;;
1603;SDS011;795;49.296;11.348;2023-06-19T14:50:33;4.20;;;3.80;;
1603;SDS011;795;49.296;11.348;2023-06-19T14:53:01;7.40;;;4.53;;
1603;SDS011;795;49.296;11.348;2023-06-19T14:55:28;4.70;;;3.60;;
1603;SDS011;795;49.296;11.348;2023-06-19T14:57:55;3.30;;;3.10;;
1603;SDS011;795;49.296;11.348;2023-06-19T15:00:23;4.20;;;3.80;;
1603;SDS011;795;49.296;11.348;2023-06-19T15:02:50;7.47;;;3.57;;
1603;SDS011;795;49.296;11.348;2023-06-19T15:05:18;3.37;;;2.87;;
1603;SDS011;795;49.296;11.348;2023-06-19T15:07:45;3.43;;;3.23;;
1603;SDS011;795;49.296;11.348;2023-06-19T15:10:12;4.50;;;3.17;;
1603;SDS011;795;49.296;11.348;2023-06-19T15:12:40;4.27;;;3.67;;
1603;SDS011;795;49.296;11.348;2023-06-19T15:15:08;3.73;;;3.43;;
1603;SDS011;795;49.296;11.348;2023-06-19T15:17:36;4.00;;;3.60;;
1603;SDS011;795;49.296;11.348;2023-06-19T15:20:03;3.87;;;3.40;;
1603;SDS011;795;49.296;11.348;2023-06-19T15:22:31;5.33;;;3.90;;
1603;SDS011;795;49.296;11.348;2023-06-19T15:24:58;17.80;;;3.70;;
1603;SDS011;795;49.296;11.348;2023-06-19T15:27:25;4.03;;;3.63;;
1603;SDS011;795;49.296;11.348;2023-06-19T15:29:52;6.13;;;4.63;;